sensor_id;sensor_type;location;lat;lon;timestamp;temperature;humidity
76120;DHT22;64852;48.092;-1.640;2023-04-29T00:02:06;14.50;99.90
76120;DHT22;64852;48.092;-1.640;2023-04-29T00:04:32;14.40;99.90
76120;DHT22;64852;48.092;-1.640;2023-04-29T00:06:59;14.50;99.90
76120;DHT22;64852;48.092;-1.640;2023-04-29T00:09:24;14.40;99.90
76120;DHT22;64852;48.092;-1.640;2023-04-29T00:11:50;14.40;99.90
76120;DHT22;64852;48.092;-1.640;2023-04-29T00:14:16;14.50;99.90
76120;DHT22;64852;48.092;-1.640;2023-04-29T00:16:41;14.50;99.90
76120;DHT22;64852;48.092;-1.640;2023-04-29T00:19:07;14.60;99.90
76120;DHT22;64852;48.092;-1.640;2023-04-29T00:21:32;14.50;99.90
76120;DHT22;64852;48.092;-1.640;2023-04-29T00:23:58;14.60;99.90
76120;DHT22;64852;48.092;-1.640;2023-04-29T00:26:24;14.50;99.90
76120;DHT22;64852;48.092;-1.640;2023-04-29T00:28:50;14.60;99.90
76120;DHT22;64852;48.092;-1.640;2023-04-29T00:31:15;14.60;99.90
76120;DHT22;64852;48.092;-1.640;2023-04-29T00:33:41;14.60;99.90
76120;DHT22;64852;48.092;-1.640;2023-04-29T00:36:06;14.50;99.90
76120;DHT22;64852;48.092;-1.640;2023-04-29T00:38:32;14.50;99.90
76120;DHT22;64852;48.092;-1.640;2023-04-29T00:40:58;14.40;99.90
76120;DHT22;64852;48.092;-1.640;2023-04-29T00:43:24;14.40;99.90
76120;DHT22;64852;48.092;-1.640;2023-04-29T00:45:49;14.30;99.90
76120;DHT22;64852;48.092;-1.640;2023-04-29T00:48:15;14.20;99.90
76120;DHT22;64852;48.092;-1.640;2023-04-29T00:50:41;14.10;99.90
76120;DHT22;64852;48.092;-1.640;2023-04-29T00:53:07;14.10;99.90
76120;DHT22;64852;48.092;-1.640;2023-04-29T00:55:32;14.30;99.90
76120;DHT22;64852;48.092;-1.640;2023-04-29T00:57:58;14.20;99.90
76120;DHT22;64852;48.092;-1.640;2023-04-29T01:00:25;14.20;99.90
76120;DHT22;64852;48.092;-1.640;2023-04-29T01:02:51;14.20;99.90
76120;DHT22;64852;48.092;-1.640;2023-04-29T01:05:16;14.20;99.90
76120;DHT22;64852;48.092;-1.640;2023-04-29T01:15:11;14.10;99.90
76120;DHT22;64852;48.092;-1.640;2023-04-29T01:17:43;14.00;99.90
76120;DHT22;64852;48.092;-1.640;2023-04-29T01:20:09;13.90;99.90
76120;DHT22;64852;48.092;-1.640;2023-04-29T01:22:35;13.80;99.90
76120;DHT22;64852;48.092;-1.640;2023-04-29T01:25:01;13.80;99.90
76120;DHT22;64852;48.092;-1.640;2023-04-29T01:29:58;13.90;99.90
76120;DHT22;64852;48.092;-1.640;2023-04-29T01:32:36;13.90;99.90
76120;DHT22;64852;48.092;-1.640;2023-04-29T01:37:40;14.00;99.90
76120;DHT22;64852;48.092;-1.640;2023-04-29T01:40:15;14.10;99.90
76120;DHT22;64852;48.092;-1.640;2023-04-29T01:45:40;13.90;99.90
76120;DHT22;64852;48.092;-1.640;2023-04-29T01:48:05;13.90;99.90
76120;DHT22;64852;48.092;-1.640;2023-04-29T01:50:31;13.90;99.90
76120;DHT22;64852;48.092;-1.640;2023-04-29T01:52:57;13.80;99.90
76120;DHT22;64852;48.092;-1.640;2023-04-29T01:55:22;13.80;99.90
76120;DHT22;64852;48.092;-1.640;2023-04-29T01:57:48;13.70;99.90
76120;DHT22;64852;48.092;-1.640;2023-04-29T02:00:13;13.80;99.90
76120;DHT22;64852;48.092;-1.640;2023-04-29T02:02:39;13.80;99.90
76120;DHT22;64852;48.092;-1.640;2023-04-29T02:05:05;13.60;99.90
76120;DHT22;64852;48.092;-1.640;2023-04-29T02:07:30;13.80;99.90
76120;DHT22;64852;48.092;-1.640;2023-04-29T02:09:56;13.80;99.90
76120;DHT22;64852;48.092;-1.640;2023-04-29T02:12:22;13.70;99.90
76120;DHT22;64852;48.092;-1.640;2023-04-29T02:14:50;13.70;99.90
76120;DHT22;64852;48.092;-1.640;2023-04-29T02:17:16;13.70;99.90
76120;DHT22;64852;48.092;-1.640;2023-04-29T02:19:42;13.70;99.90
76120;DHT22;64852;48.092;-1.640;2023-04-29T02:22:07;13.60;99.90
76120;DHT22;64852;48.092;-1.640;2023-04-29T02:24:33;13.70;99.90
76120;DHT22;64852;48.092;-1.640;2023-04-29T02:26:59;13.60;99.90
76120;DHT22;64852;48.092;-1.640;2023-04-29T02:29:25;13.60;99.90
76120;DHT22;64852;48.092;-1.640;2023-04-29T02:31:51;13.60;99.90
76120;DHT22;64852;48.092;-1.640;2023-04-29T02:34:16;13.60;99.90
76120;DHT22;64852;48.092;-1.640;2023-04-29T02:36:42;13.60;99.90
76120;DHT22;64852;48.092;-1.640;2023-04-29T02:39:07;13.50;99.90
76120;DHT22;64852;48.092;-1.640;2023-04-29T02:41:33;13.50;99.90
76120;DHT22;64852;48.092;-1.640;2023-04-29T02:43:59;13.50;99.90
76120;DHT22;64852;48.092;-1.640;2023-04-29T02:46:24;13.50;99.90
76120;DHT22;64852;48.092;-1.640;2023-04-29T02:48:50;13.50;99.90
76120;DHT22;64852;48.092;-1.640;2023-04-29T02:51:15;13.50;99.90
76120;DHT22;64852;48.092;-1.640;2023-04-29T02:53:41;13.50;99.90
76120;DHT22;64852;48.092;-1.640;2023-04-29T02:56:06;13.50;99.90
76120;DHT22;64852;48.092;-1.640;2023-04-29T02:58:32;13.40;99.90
76120;DHT22;64852;48.092;-1.640;2023-04-29T03:00:57;13.40;99.90
76120;DHT22;64852;48.092;-1.640;2023-04-29T03:03:23;13.40;99.90
76120;DHT22;64852;48.092;-1.640;2023-04-29T03:05:48;13.50;99.90
76120;DHT22;64852;48.092;-1.640;2023-04-29T03:08:14;13.50;99.90
76120;DHT22;64852;48.092;-1.640;2023-04-29T03:10:40;13.60;99.90
76120;DHT22;64852;48.092;-1.640;2023-04-29T03:13:05;13.50;99.90
76120;DHT22;64852;48.092;-1.640;2023-04-29T03:15:31;13.50;99.90
76120;DHT22;64852;48.092;-1.640;2023-04-29T03:17:56;13.40;99.90
76120;DHT22;64852;48.092;-1.640;2023-04-29T03:20:26;13.40;99.90
76120;DHT22;64852;48.092;-1.640;2023-04-29T03:22:51;13.40;99.90
76120;DHT22;64852;48.092;-1.640;2023-04-29T03:25:17;13.40;99.90
76120;DHT22;64852;48.092;-1.640;2023-04-29T03:27:42;13.30;99.90
76120;DHT22;64852;48.092;-1.640;2023-04-29T03:30:08;13.20;99.90
76120;DHT22;64852;48.092;-1.640;2023-04-29T03:32:34;13.20;99.90
76120;DHT22;64852;48.092;-1.640;2023-04-29T03:34:59;13.30;99.90
76120;DHT22;64852;48.092;-1.640;2023-04-29T03:37:25;13.30;99.90
76120;DHT22;64852;48.092;-1.640;2023-04-29T03:39:50;13.30;99.90
76120;DHT22;64852;48.092;-1.640;2023-04-29T03:42:16;13.40;99.90
76120;DHT22;64852;48.092;-1.640;2023-04-29T03:44:41;13.30;99.90
76120;DHT22;64852;48.092;-1.640;2023-04-29T03:47:07;13.30;99.90
76120;DHT22;64852;48.092;-1.640;2023-04-29T03:49:32;13.40;99.90
76120;DHT22;64852;48.092;-1.640;2023-04-29T03:51:58;13.40;99.90
76120;DHT22;64852;48.092;-1.640;2023-04-29T03:54:23;13.40;99.90
76120;DHT22;64852;48.092;-1.640;2023-04-29T03:56:49;13.30;99.90
76120;DHT22;64852;48.092;-1.640;2023-04-29T03:59:14;13.40;99.90
76120;DHT22;64852;48.092;-1.640;2023-04-29T04:01:40;13.30;99.90
76120;DHT22;64852;48.092;-1.640;2023-04-29T04:04:05;13.30;99.90
76120;DHT22;64852;48.092;-1.640;2023-04-29T04:06:31;13.30;99.90
76120;DHT22;64852;48.092;-1.640;2023-04-29T04:08:56;13.30;99.90
76120;DHT22;64852;48.092;-1.640;2023-04-29T04:11:22;13.20;99.90
76120;DHT22;64852;48.092;-1.640;2023-04-29T04:13:48;13.20;99.90
76120;DHT22;64852;48.092;-1.640;2023-04-29T04:16:14;13.30;99.90
76120;DHT22;64852;48.092;-1.640;2023-04-29T04:18:39;13.40;99.90
76120;DHT22;64852;48.092;-1.640;2023-04-29T04:21:08;13.30;99.90
76120;DHT22;64852;48.092;-1.640;2023-04-29T04:23:34;13.40;99.90
76120;DHT22;64852;48.092;-1.640;2023-04-29T04:26:00;13.40;99.90
76120;DHT22;64852;48.092;-1.640;2023-04-29T04:28:26;13.40;99.90
76120;DHT22;64852;48.092;-1.640;2023-04-29T04:30:51;13.40;99.90
76120;DHT22;64852;48.092;-1.640;2023-04-29T04:33:17;13.40;99.90
76120;DHT22;64852;48.092;-1.640;2023-04-29T04:35:42;13.40;99.90
76120;DHT22;64852;48.092;-1.640;2023-04-29T04:38:08;13.40;99.90
76120;DHT22;64852;48.092;-1.640;2023-04-29T04:40:35;13.50;99.90
76120;DHT22;64852;48.092;-1.640;2023-04-29T04:43:01;13.40;99.90
76120;DHT22;64852;48.092;-1.640;2023-04-29T04:45:29;13.40;99.90
76120;DHT22;64852;48.092;-1.640;2023-04-29T04:47:55;13.50;99.90
76120;DHT22;64852;48.092;-1.640;2023-04-29T04:50:21;13.50;99.90
76120;DHT22;64852;48.092;-1.640;2023-04-29T04:52:46;13.40;99.90
76120;DHT22;64852;48.092;-1.640;2023-04-29T04:55:12;13.40;99.90
76120;DHT22;64852;48.092;-1.640;2023-04-29T04:57:37;13.40;99.90
76120;DHT22;64852;48.092;-1.640;2023-04-29T05:00:03;13.40;99.90
76120;DHT22;64852;48.092;-1.640;2023-04-29T05:02:29;13.40;99.90
76120;DHT22;64852;48.092;-1.640;2023-04-29T05:04:55;13.40;99.90
76120;DHT22;64852;48.092;-1.640;2023-04-29T05:07:20;13.50;99.90
76120;DHT22;64852;48.092;-1.640;2023-04-29T05:09:46;13.50;99.90
76120;DHT22;64852;48.092;-1.640;2023-04-29T05:12:12;13.60;99.90
76120;DHT22;64852;48.092;-1.640;2023-04-29T05:14:37;13.50;99.90
76120;DHT22;64852;48.092;-1.640;2023-04-29T05:17:03;13.50;99.90
76120;DHT22;64852;48.092;-1.640;2023-04-29T05:19:28;13.60;99.90
76120;DHT22;64852;48.092;-1.640;2023-04-29T05:21:54;13.60;99.90
76120;DHT22;64852;48.092;-1.640;2023-04-29T05:24:19;13.50;99.90
76120;DHT22;64852;48.092;-1.640;2023-04-29T05:26:45;13.50;99.90
76120;DHT22;64852;48.092;-1.640;2023-04-29T05:29:10;13.50;99.90
76120;DHT22;64852;48.092;-1.640;2023-04-29T05:31:36;13.40;99.90
76120;DHT22;64852;48.092;-1.640;2023-04-29T05:34:05;13.40;99.90
76120;DHT22;64852;48.092;-1.640;2023-04-29T05:36:31;13.30;99.90
76120;DHT22;64852;48.092;-1.640;2023-04-29T05:38:56;13.40;99.90
76120;DHT22;64852;48.092;-1.640;2023-04-29T05:41:22;13.50;99.90
76120;DHT22;64852;48.092;-1.640;2023-04-29T05:43:49;13.50;99.90
76120;DHT22;64852;48.092;-1.640;2023-04-29T05:46:15;13.50;99.90
76120;DHT22;64852;48.092;-1.640;2023-04-29T05:48:40;13.50;99.90
76120;DHT22;64852;48.092;-1.640;2023-04-29T05:51:06;13.50;99.90
76120;DHT22;64852;48.092;-1.640;2023-04-29T05:53:31;13.50;99.90
76120;DHT22;64852;48.092;-1.640;2023-04-29T05:55:57;13.50;99.90
76120;DHT22;64852;48.092;-1.640;2023-04-29T05:58:23;13.50;99.90
76120;DHT22;64852;48.092;-1.640;2023-04-29T06:00:50;13.50;99.90
76120;DHT22;64852;48.092;-1.640;2023-04-29T06:03:15;13.60;99.90
76120;DHT22;64852;48.092;-1.640;2023-04-29T06:05:41;13.60;99.90
76120;DHT22;64852;48.092;-1.640;2023-04-29T06:08:07;13.60;99.90
76120;DHT22;64852;48.092;-1.640;2023-04-29T06:10:32;13.60;99.90
76120;DHT22;64852;48.092;-1.640;2023-04-29T06:12:58;13.70;99.90
76120;DHT22;64852;48.092;-1.640;2023-04-29T06:15:23;13.70;99.90
76120;DHT22;64852;48.092;-1.640;2023-04-29T06:17:49;13.50;99.90
76120;DHT22;64852;48.092;-1.640;2023-04-29T06:20:14;13.60;99.90
76120;DHT22;64852;48.092;-1.640;2023-04-29T06:22:40;13.70;99.90
76120;DHT22;64852;48.092;-1.640;2023-04-29T06:25:05;13.60;99.90
76120;DHT22;64852;48.092;-1.640;2023-04-29T06:27:31;13.60;99.90
76120;DHT22;64852;48.092;-1.640;2023-04-29T06:29:56;13.60;99.90
76120;DHT22;64852;48.092;-1.640;2023-04-29T06:32:23;13.60;99.90
76120;DHT22;64852;48.092;-1.640;2023-04-29T06:34:48;13.60;99.90
76120;DHT22;64852;48.092;-1.640;2023-04-29T06:37:14;13.50;99.90
76120;DHT22;64852;48.092;-1.640;2023-04-29T06:39:39;13.70;99.90
76120;DHT22;64852;48.092;-1.640;2023-04-29T06:42:05;13.70;99.90
76120;DHT22;64852;48.092;-1.640;2023-04-29T06:44:31;13.80;99.90
76120;DHT22;64852;48.092;-1.640;2023-04-29T06:46:57;13.80;99.90
76120;DHT22;64852;48.092;-1.640;2023-04-29T06:49:22;13.90;99.90
76120;DHT22;64852;48.092;-1.640;2023-04-29T06:51:48;13.90;99.90
76120;DHT22;64852;48.092;-1.640;2023-04-29T06:54:13;13.90;99.90
76120;DHT22;64852;48.092;-1.640;2023-04-29T06:56:39;13.90;99.90
76120;DHT22;64852;48.092;-1.640;2023-04-29T06:59:04;14.00;99.90
76120;DHT22;64852;48.092;-1.640;2023-04-29T07:01:30;13.90;99.90
76120;DHT22;64852;48.092;-1.640;2023-04-29T07:03:55;13.90;99.90
76120;DHT22;64852;48.092;-1.640;2023-04-29T07:06:21;14.00;99.90
76120;DHT22;64852;48.092;-1.640;2023-04-29T07:08:46;14.00;99.90
76120;DHT22;64852;48.092;-1.640;2023-04-29T07:11:12;14.10;99.90
76120;DHT22;64852;48.092;-1.640;2023-04-29T07:13:38;14.20;99.90
76120;DHT22;64852;48.092;-1.640;2023-04-29T07:16:03;14.20;99.90
76120;DHT22;64852;48.092;-1.640;2023-04-29T07:18:29;14.10;99.90
76120;DHT22;64852;48.092;-1.640;2023-04-29T07:20:59;14.00;99.90
76120;DHT22;64852;48.092;-1.640;2023-04-29T07:23:25;14.00;99.90
76120;DHT22;64852;48.092;-1.640;2023-04-29T07:25:50;14.10;99.90
76120;DHT22;64852;48.092;-1.640;2023-04-29T07:28:16;14.10;99.90
76120;DHT22;64852;48.092;-1.640;2023-04-29T07:30:42;14.10;99.90
76120;DHT22;64852;48.092;-1.640;2023-04-29T07:33:07;14.10;99.90
76120;DHT22;64852;48.092;-1.640;2023-04-29T07:35:33;14.20;99.90
76120;DHT22;64852;48.092;-1.640;2023-04-29T07:37:59;14.10;99.90
76120;DHT22;64852;48.092;-1.640;2023-04-29T07:40:24;14.10;99.90
76120;DHT22;64852;48.092;-1.640;2023-04-29T07:42:50;14.10;99.90
76120;DHT22;64852;48.092;-1.640;2023-04-29T07:45:16;14.20;99.90
76120;DHT22;64852;48.092;-1.640;2023-04-29T07:47:41;14.10;99.90
76120;DHT22;64852;48.092;-1.640;2023-04-29T07:50:07;14.20;99.90
76120;DHT22;64852;48.092;-1.640;2023-04-29T07:52:33;14.20;99.90
76120;DHT22;64852;48.092;-1.640;2023-04-29T07:54:59;14.20;99.90
76120;DHT22;64852;48.092;-1.640;2023-04-29T07:57:24;14.20;99.90
76120;DHT22;64852;48.092;-1.640;2023-04-29T07:59:50;14.20;99.90
76120;DHT22;64852;48.092;-1.640;2023-04-29T08:02:16;14.20;99.90
76120;DHT22;64852;48.092;-1.640;2023-04-29T08:04:42;14.20;99.90
76120;DHT22;64852;48.092;-1.640;2023-04-29T08:07:07;14.30;99.90
76120;DHT22;64852;48.092;-1.640;2023-04-29T08:09:33;14.40;99.90
76120;DHT22;64852;48.092;-1.640;2023-04-29T08:11:59;14.40;99.90
76120;DHT22;64852;48.092;-1.640;2023-04-29T08:14:25;14.40;99.90
76120;DHT22;64852;48.092;-1.640;2023-04-29T08:16:51;14.50;99.90
76120;DHT22;64852;48.092;-1.640;2023-04-29T08:19:16;14.50;99.90
76120;DHT22;64852;48.092;-1.640;2023-04-29T08:21:42;14.60;99.90
76120;DHT22;64852;48.092;-1.640;2023-04-29T08:24:07;14.50;99.90
76120;DHT22;64852;48.092;-1.640;2023-04-29T08:26:33;14.50;99.90
76120;DHT22;64852;48.092;-1.640;2023-04-29T08:28:58;14.50;99.90
76120;DHT22;64852;48.092;-1.640;2023-04-29T08:31:24;14.60;99.90
76120;DHT22;64852;48.092;-1.640;2023-04-29T08:33:50;14.60;99.90
76120;DHT22;64852;48.092;-1.640;2023-04-29T08:36:16;14.70;99.90
76120;DHT22;64852;48.092;-1.640;2023-04-29T08:38:42;14.80;99.90
76120;DHT22;64852;48.092;-1.640;2023-04-29T08:41:07;14.90;99.90
76120;DHT22;64852;48.092;-1.640;2023-04-29T08:43:36;14.90;99.90
76120;DHT22;64852;48.092;-1.640;2023-04-29T08:46:02;15.10;99.90
76120;DHT22;64852;48.092;-1.640;2023-04-29T08:48:27;15.10;99.90
76120;DHT22;64852;48.092;-1.640;2023-04-29T08:50:53;15.10;99.90
76120;DHT22;64852;48.092;-1.640;2023-04-29T08:53:19;15.20;99.90
76120;DHT22;64852;48.092;-1.640;2023-04-29T08:55:45;15.20;99.90
76120;DHT22;64852;48.092;-1.640;2023-04-29T08:58:11;15.30;99.90
76120;DHT22;64852;48.092;-1.640;2023-04-29T09:00:37;15.20;99.90
76120;DHT22;64852;48.092;-1.640;2023-04-29T09:03:10;15.30;99.90
76120;DHT22;64852;48.092;-1.640;2023-04-29T09:05:36;15.30;99.90
76120;DHT22;64852;48.092;-1.640;2023-04-29T09:08:02;15.30;99.90
76120;DHT22;64852;48.092;-1.640;2023-04-29T09:10:29;15.30;99.90
76120;DHT22;64852;48.092;-1.640;2023-04-29T09:12:57;15.30;99.90
76120;DHT22;64852;48.092;-1.640;2023-04-29T09:15:23;15.30;99.90
76120;DHT22;64852;48.092;-1.640;2023-04-29T09:17:48;15.40;99.90
76120;DHT22;64852;48.092;-1.640;2023-04-29T09:22:59;15.60;99.90
76120;DHT22;64852;48.092;-1.640;2023-04-29T09:25:26;15.70;99.90
76120;DHT22;64852;48.092;-1.640;2023-04-29T09:27:51;15.80;99.90
76120;DHT22;64852;48.092;-1.640;2023-04-29T09:30:17;16.00;99.90
76120;DHT22;64852;48.092;-1.640;2023-04-29T09:32:44;16.10;99.90
76120;DHT22;64852;48.092;-1.640;2023-04-29T09:35:23;16.10;99.90
76120;DHT22;64852;48.092;-1.640;2023-04-29T09:37:49;16.10;99.90
76120;DHT22;64852;48.092;-1.640;2023-04-29T09:40:30;16.20;99.90
76120;DHT22;64852;48.092;-1.640;2023-04-29T09:42:59;16.20;99.90
76120;DHT22;64852;48.092;-1.640;2023-04-29T09:45:39;16.10;99.90
76120;DHT22;64852;48.092;-1.640;2023-04-29T09:48:06;16.20;99.90
76120;DHT22;64852;48.092;-1.640;2023-04-29T09:50:33;16.20;99.90
76120;DHT22;64852;48.092;-1.640;2023-04-29T09:52:58;16.30;99.90
76120;DHT22;64852;48.092;-1.640;2023-04-29T09:55:24;16.40;99.90
76120;DHT22;64852;48.092;-1.640;2023-04-29T09:57:51;16.50;99.90
76120;DHT22;64852;48.092;-1.640;2023-04-29T10:00:17;16.90;99.90
76120;DHT22;64852;48.092;-1.640;2023-04-29T10:02:46;16.50;99.90
76120;DHT22;64852;48.092;-1.640;2023-04-29T10:05:16;16.50;99.90
76120;DHT22;64852;48.092;-1.640;2023-04-29T10:07:41;16.30;99.90
76120;DHT22;64852;48.092;-1.640;2023-04-29T10:10:08;16.60;99.90
76120;DHT22;64852;48.092;-1.640;2023-04-29T10:12:35;16.70;99.90
76120;DHT22;64852;48.092;-1.640;2023-04-29T10:20:01;17.20;99.90
76120;DHT22;64852;48.092;-1.640;2023-04-29T10:24:58;17.40;99.90
76120;DHT22;64852;48.092;-1.640;2023-04-29T10:27:25;17.50;99.90
76120;DHT22;64852;48.092;-1.640;2023-04-29T10:29:51;17.70;99.90
76120;DHT22;64852;48.092;-1.640;2023-04-29T10:32:17;17.90;99.90
76120;DHT22;64852;48.092;-1.640;2023-04-29T10:34:43;18.00;99.90
76120;DHT22;64852;48.092;-1.640;2023-04-29T10:37:09;18.10;99.90
76120;DHT22;64852;48.092;-1.640;2023-04-29T10:39:42;18.20;99.90
76120;DHT22;64852;48.092;-1.640;2023-04-29T10:47:40;18.70;99.90
76120;DHT22;64852;48.092;-1.640;2023-04-29T10:50:05;18.90;99.90
76120;DHT22;64852;48.092;-1.640;2023-04-29T10:52:49;19.00;99.90
76120;DHT22;64852;48.092;-1.640;2023-04-29T10:55:15;19.00;99.90
76120;DHT22;64852;48.092;-1.640;2023-04-29T10:57:41;19.10;99.90
76120;DHT22;64852;48.092;-1.640;2023-04-29T11:00:08;19.10;99.90
76120;DHT22;64852;48.092;-1.640;2023-04-29T11:02:46;19.10;99.90
76120;DHT22;64852;48.092;-1.640;2023-04-29T11:05:11;19.00;99.90
76120;DHT22;64852;48.092;-1.640;2023-04-29T11:07:37;18.90;99.90
76120;DHT22;64852;48.092;-1.640;2023-04-29T11:10:02;18.90;99.90
76120;DHT22;64852;48.092;-1.640;2023-04-29T11:12:28;19.00;99.90
76120;DHT22;64852;48.092;-1.640;2023-04-29T11:14:53;19.10;99.90
76120;DHT22;64852;48.092;-1.640;2023-04-29T11:17:27;19.20;99.90
76120;DHT22;64852;48.092;-1.640;2023-04-29T11:19:59;19.40;99.90
76120;DHT22;64852;48.092;-1.640;2023-04-29T11:22:25;19.40;99.90
76120;DHT22;64852;48.092;-1.640;2023-04-29T11:24:53;19.50;99.90
76120;DHT22;64852;48.092;-1.640;2023-04-29T11:27:19;19.60;99.90
76120;DHT22;64852;48.092;-1.640;2023-04-29T11:29:49;19.60;99.90
76120;DHT22;64852;48.092;-1.640;2023-04-29T11:32:15;19.80;99.90
76120;DHT22;64852;48.092;-1.640;2023-04-29T11:34:44;19.90;99.90
76120;DHT22;64852;48.092;-1.640;2023-04-29T11:37:10;20.20;99.90
76120;DHT22;64852;48.092;-1.640;2023-04-29T11:39:35;20.50;99.90
76120;DHT22;64852;48.092;-1.640;2023-04-29T11:42:07;20.60;99.90
76120;DHT22;64852;48.092;-1.640;2023-04-29T11:44:33;20.70;99.90
76120;DHT22;64852;48.092;-1.640;2023-04-29T11:47:00;20.90;99.90
76120;DHT22;64852;48.092;-1.640;2023-04-29T11:49:28;21.10;99.90
76120;DHT22;64852;48.092;-1.640;2023-04-29T11:51:54;21.30;99.90
76120;DHT22;64852;48.092;-1.640;2023-04-29T11:54:20;21.30;99.90
76120;DHT22;64852;48.092;-1.640;2023-04-29T11:56:45;21.50;99.90
76120;DHT22;64852;48.092;-1.640;2023-04-29T11:59:11;21.50;99.90
76120;DHT22;64852;48.092;-1.640;2023-04-29T12:01:36;21.50;99.90
76120;DHT22;64852;48.092;-1.640;2023-04-29T12:04:02;21.70;99.90
76120;DHT22;64852;48.092;-1.640;2023-04-29T12:06:30;21.80;99.90
76120;DHT22;64852;48.092;-1.640;2023-04-29T12:08:57;21.90;99.90
76120;DHT22;64852;48.092;-1.640;2023-04-29T12:11:23;22.00;99.90
76120;DHT22;64852;48.092;-1.640;2023-04-29T12:13:49;22.40;99.90
76120;DHT22;64852;48.092;-1.640;2023-04-29T12:16:15;22.60;99.90
76120;DHT22;64852;48.092;-1.640;2023-04-29T12:18:41;22.80;99.90
76120;DHT22;64852;48.092;-1.640;2023-04-29T12:21:07;22.40;99.90
76120;DHT22;64852;48.092;-1.640;2023-04-29T12:23:33;22.90;99.90
76120;DHT22;64852;48.092;-1.640;2023-04-29T12:26:00;23.00;99.90
76120;DHT22;64852;48.092;-1.640;2023-04-29T12:28:26;23.20;99.90
76120;DHT22;64852;48.092;-1.640;2023-04-29T12:30:51;23.30;99.90
76120;DHT22;64852;48.092;-1.640;2023-04-29T12:33:25;23.60;99.90
76120;DHT22;64852;48.092;-1.640;2023-04-29T12:35:52;24.10;99.90
76120;DHT22;64852;48.092;-1.640;2023-04-29T12:38:19;24.60;99.90
76120;DHT22;64852;48.092;-1.640;2023-04-29T12:40:45;25.30;99.90
76120;DHT22;64852;48.092;-1.640;2023-04-29T12:43:10;25.90;99.90
76120;DHT22;64852;48.092;-1.640;2023-04-29T12:45:37;26.50;99.90
76120;DHT22;64852;48.092;-1.640;2023-04-29T12:48:03;27.00;99.90
76120;DHT22;64852;48.092;-1.640;2023-04-29T12:50:37;27.00;99.90
76120;DHT22;64852;48.092;-1.640;2023-04-29T12:53:03;26.80;90.60
76120;DHT22;64852;48.092;-1.640;2023-04-29T12:55:33;27.00;99.90
76120;DHT22;64852;48.092;-1.640;2023-04-29T12:57:59;27.40;99.90
76120;DHT22;64852;48.092;-1.640;2023-04-29T13:00:25;27.90;99.90
76120;DHT22;64852;48.092;-1.640;2023-04-29T13:02:50;28.00;99.90
76120;DHT22;64852;48.092;-1.640;2023-04-29T13:05:16;28.20;99.90
76120;DHT22;64852;48.092;-1.640;2023-04-29T13:07:41;28.10;75.80
76120;DHT22;64852;48.092;-1.640;2023-04-29T13:10:07;27.40;88.10
76120;DHT22;64852;48.092;-1.640;2023-04-29T13:12:33;27.40;99.90
76120;DHT22;64852;48.092;-1.640;2023-04-29T13:14:58;27.70;86.00
76120;DHT22;64852;48.092;-1.640;2023-04-29T13:17:24;27.70;93.60
76120;DHT22;64852;48.092;-1.640;2023-04-29T13:19:49;27.80;99.90
76120;DHT22;64852;48.092;-1.640;2023-04-29T13:22:15;28.40;89.50
76120;DHT22;64852;48.092;-1.640;2023-04-29T13:24:41;29.20;99.60
76120;DHT22;64852;48.092;-1.640;2023-04-29T13:27:06;29.70;70.80
76120;DHT22;64852;48.092;-1.640;2023-04-29T13:29:31;30.00;60.70
76120;DHT22;64852;48.092;-1.640;2023-04-29T13:31:57;29.70;64.10
76120;DHT22;64852;48.092;-1.640;2023-04-29T13:34:22;29.50;80.90
76120;DHT22;64852;48.092;-1.640;2023-04-29T13:36:48;30.00;76.40
76120;DHT22;64852;48.092;-1.640;2023-04-29T13:39:14;30.40;78.90
76120;DHT22;64852;48.092;-1.640;2023-04-29T13:41:39;30.90;82.00
76120;DHT22;64852;48.092;-1.640;2023-04-29T13:44:05;31.40;83.80
76120;DHT22;64852;48.092;-1.640;2023-04-29T13:46:30;32.00;79.00
76120;DHT22;64852;48.092;-1.640;2023-04-29T13:48:56;32.40;69.20
76120;DHT22;64852;48.092;-1.640;2023-04-29T13:51:22;32.80;69.60
76120;DHT22;64852;48.092;-1.640;2023-04-29T13:53:48;33.00;66.80
76120;DHT22;64852;48.092;-1.640;2023-04-29T13:56:13;33.10;66.40
76120;DHT22;64852;48.092;-1.640;2023-04-29T13:58:39;32.70;53.90
76120;DHT22;64852;48.092;-1.640;2023-04-29T14:01:06;32.20;55.10
76120;DHT22;64852;48.092;-1.640;2023-04-29T14:03:31;32.00;50.50
76120;DHT22;64852;48.092;-1.640;2023-04-29T14:05:57;31.80;55.80
76120;DHT22;64852;48.092;-1.640;2023-04-29T14:08:22;32.00;49.20
76120;DHT22;64852;48.092;-1.640;2023-04-29T14:10:48;32.20;53.50
76120;DHT22;64852;48.092;-1.640;2023-04-29T14:13:13;32.70;55.70
76120;DHT22;64852;48.092;-1.640;2023-04-29T14:15:39;33.40;57.60
76120;DHT22;64852;48.092;-1.640;2023-04-29T14:18:05;33.80;56.00
76120;DHT22;64852;48.092;-1.640;2023-04-29T14:20:32;34.20;54.80
76120;DHT22;64852;48.092;-1.640;2023-04-29T14:22:58;34.30;50.20
76120;DHT22;64852;48.092;-1.640;2023-04-29T14:25:23;34.30;50.40
76120;DHT22;64852;48.092;-1.640;2023-04-29T14:27:49;34.10;41.20
76120;DHT22;64852;48.092;-1.640;2023-04-29T14:30:14;34.30;49.50
76120;DHT22;64852;48.092;-1.640;2023-04-29T14:32:40;34.60;46.10
76120;DHT22;64852;48.092;-1.640;2023-04-29T14:35:05;35.00;49.00
76120;DHT22;64852;48.092;-1.640;2023-04-29T14:37:31;35.40;47.00
76120;DHT22;64852;48.092;-1.640;2023-04-29T14:39:57;35.60;44.20
76120;DHT22;64852;48.092;-1.640;2023-04-29T14:42:22;35.90;43.60
76120;DHT22;64852;48.092;-1.640;2023-04-29T14:44:48;36.10;47.20
76120;DHT22;64852;48.092;-1.640;2023-04-29T14:47:13;35.60;43.60
76120;DHT22;64852;48.092;-1.640;2023-04-29T14:49:39;34.70;39.80
76120;DHT22;64852;48.092;-1.640;2023-04-29T14:52:06;34.10;43.00
76120;DHT22;64852;48.092;-1.640;2023-04-29T14:54:32;34.20;44.60
76120;DHT22;64852;48.092;-1.640;2023-04-29T14:56:57;34.80;43.90
76120;DHT22;64852;48.092;-1.640;2023-04-29T14:59:23;35.20;40.90
76120;DHT22;64852;48.092;-1.640;2023-04-29T15:01:48;35.30;41.70
76120;DHT22;64852;48.092;-1.640;2023-04-29T15:04:14;36.00;37.90
76120;DHT22;64852;48.092;-1.640;2023-04-29T15:06:40;36.10;38.40
76120;DHT22;64852;48.092;-1.640;2023-04-29T15:09:05;36.20;39.40
76120;DHT22;64852;48.092;-1.640;2023-04-29T15:11:32;36.30;38.30
76120;DHT22;64852;48.092;-1.640;2023-04-29T15:13:57;35.50;36.30
76120;DHT22;64852;48.092;-1.640;2023-04-29T15:16:23;34.70;37.90
76120;DHT22;64852;48.092;-1.640;2023-04-29T15:18:48;34.70;40.20
76120;DHT22;64852;48.092;-1.640;2023-04-29T15:21:14;35.30;40.80
76120;DHT22;64852;48.092;-1.640;2023-04-29T15:23:39;36.10;39.50
76120;DHT22;64852;48.092;-1.640;2023-04-29T15:26:05;36.20;35.80
76120;DHT22;64852;48.092;-1.640;2023-04-29T15:28:31;35.40;32.70
76120;DHT22;64852;48.092;-1.640;2023-04-29T15:30:57;34.10;33.50
76120;DHT22;64852;48.092;-1.640;2023-04-29T15:33:25;32.80;34.50
76120;DHT22;64852;48.092;-1.640;2023-04-29T15:35:51;31.90;35.20
76120;DHT22;64852;48.092;-1.640;2023-04-29T15:38:17;31.10;35.30
76120;DHT22;64852;48.092;-1.640;2023-04-29T15:40:42;30.50;36.80